createdAt,value
2022-09-24T00:02:41.318Z,5.53
2022-09-24T00:05:29.293Z,5.25
2022-09-24T00:08:20.158Z,5.38
2022-09-24T00:11:12.103Z,4.60
2022-09-24T00:14:00.714Z,5.43
2022-09-24T00:16:49.833Z,5.00
2022-09-24T00:19:38.152Z,4.55
2022-09-24T00:22:25.975Z,5.03
2022-09-24T00:25:33.463Z,4.40
2022-09-24T00:28:21.656Z,3.92
2022-09-24T00:31:09.876Z,5.50
2022-09-24T00:33:59.209Z,6.35
2022-09-24T00:36:47.356Z,5.07
2022-09-24T00:39:35.777Z,4.78
2022-09-24T00:42:23.617Z,5.25
2022-09-24T00:45:11.815Z,4.72
2022-09-24T00:47:59.980Z,4.80
2022-09-24T00:50:48.706Z,5.90
2022-09-24T00:53:37.025Z,3.95
2022-09-24T00:56:25.744Z,4.32
2022-09-24T00:59:18.476Z,3.85
2022-09-24T01:02:07.968Z,3.25
2022-09-24T01:04:56.716Z,3.03
2022-09-24T01:07:48.332Z,3.50
2022-09-24T01:10:58.586Z,3.10
2022-09-24T01:13:55.432Z,3.00
2022-09-24T01:17:21.035Z,3.65
2022-09-24T01:20:21.875Z,3.20
2022-09-24T01:23:43.823Z,3.40
2022-09-24T01:26:58.964Z,3.78
2022-09-24T01:30:02.790Z,3.47
2022-09-24T01:32:58.159Z,2.67
2022-09-24T01:35:58.000Z,2.58
2022-09-24T01:38:50.461Z,3.55
2022-09-24T01:41:40.112Z,2.53
2022-09-24T01:44:29.331Z,1.85
2022-09-24T01:47:23.985Z,2.17
2022-09-24T01:50:14.511Z,2.83
2022-09-24T01:53:07.342Z,1.73
2022-09-24T01:56:01.288Z,1.65
2022-09-24T01:59:01.216Z,2.05
2022-09-24T02:02:28.872Z,2.20
2022-09-24T02:05:26.134Z,2.17
2022-09-24T02:08:23.683Z,2.10
2022-09-24T02:11:16.380Z,5.30
2022-09-24T02:14:12.340Z,1.80
2022-09-24T02:17:03.775Z,2.63
2022-09-24T02:19:55.000Z,1.80
2022-09-24T02:22:49.107Z,1.75
2022-09-24T02:26:12.348Z,1.63
2022-09-24T02:29:00.385Z,1.85
2022-09-24T02:31:53.641Z,0.40
2022-09-24T02:34:47.307Z,0.40
2022-09-24T02:37:41.796Z,0.40
2022-09-24T02:40:31.675Z,0.40
2022-09-24T02:43:19.582Z,0.38
2022-09-24T02:46:11.488Z,0.40
2022-09-24T02:48:59.621Z,0.45
2022-09-24T02:51:48.245Z,0.50
2022-09-24T02:54:36.069Z,0.40
2022-09-24T02:57:24.321Z,0.50
2022-09-24T03:00:12.776Z,0.40
2022-09-24T03:03:01.664Z,0.40
2022-09-24T03:05:53.157Z,0.40
2022-09-24T03:08:43.681Z,0.40
2022-09-24T03:11:33.148Z,0.40
2022-09-24T03:14:21.952Z,0.38
2022-09-24T03:17:09.781Z,0.40
2022-09-24T03:19:57.727Z,0.38
2022-09-24T03:22:46.297Z,0.30
2022-09-24T03:25:34.179Z,0.60
2022-09-24T03:28:22.161Z,0.40
2022-09-24T03:31:10.384Z,0.65
2022-09-24T03:33:59.365Z,1.50
2022-09-24T03:36:47.837Z,1.10
2022-09-24T03:39:36.895Z,1.50
2022-09-24T03:42:24.811Z,1.25
2022-09-24T03:45:12.981Z,1.27
2022-09-24T03:48:01.219Z,1.58
2022-09-24T03:50:49.396Z,1.65
2022-09-24T03:53:38.332Z,1.77
2022-09-24T03:56:26.452Z,1.00
2022-09-24T03:59:14.638Z,1.10
2022-09-24T04:02:02.506Z,1.85
2022-09-24T04:04:52.551Z,1.38
2022-09-24T04:07:40.502Z,1.45
2022-09-24T04:10:29.727Z,1.20
2022-09-24T04:13:19.194Z,0.98
2022-09-24T04:16:07.892Z,1.38
2022-09-24T04:18:55.736Z,1.38
2022-09-24T04:21:44.124Z,1.38
2022-09-24T04:24:32.301Z,1.65
2022-09-24T04:27:21.795Z,1.10
2022-09-24T04:30:12.828Z,2.35
2022-09-24T04:33:03.062Z,2.17
2022-09-24T04:35:51.255Z,2.42
2022-09-24T04:38:39.485Z,2.20
2022-09-24T04:41:27.607Z,1.70
2022-09-24T04:44:15.591Z,2.33
2022-09-24T04:47:03.663Z,2.20
2022-09-24T04:49:52.735Z,1.63
2022-09-24T04:52:40.633Z,1.90
2022-09-24T04:55:29.214Z,1.02
2022-09-24T04:58:17.020Z,1.73
2022-09-24T05:01:05.217Z,1.33
2022-09-24T05:03:53.795Z,0.80
2022-09-24T05:06:41.765Z,1.50
2022-09-24T05:09:32.167Z,1.00
2022-09-24T05:12:21.564Z,1.63
2022-09-24T05:15:10.379Z,1.83
2022-09-24T05:17:59.199Z,1.45
2022-09-24T05:20:47.347Z,1.25
2022-09-24T05:23:35.463Z,1.60
2022-09-24T05:26:41.949Z,2.35
2022-09-24T05:29:29.927Z,1.02
2022-09-24T05:32:21.149Z,1.35
2022-09-24T05:35:10.449Z,1.58
2022-09-24T05:37:58.982Z,1.65
2022-09-24T05:40:47.999Z,1.13
2022-09-24T05:43:36.128Z,1.20
2022-09-24T05:46:24.740Z,1.00
2022-09-24T05:49:12.775Z,1.60
2022-09-24T05:52:01.770Z,1.10
2022-09-24T05:54:49.749Z,1.63
2022-09-24T05:57:39.425Z,1.67
2022-09-24T06:00:27.331Z,1.50
2022-09-24T06:03:18.020Z,2.95
2022-09-24T06:06:07.785Z,1.33
2022-09-24T06:08:56.535Z,1.73
2022-09-24T06:11:44.488Z,2.03
2022-09-24T06:14:32.645Z,2.65
2022-09-24T06:17:21.652Z,2.50
2022-09-24T06:20:09.634Z,1.77
2022-09-24T06:22:57.908Z,1.92
2022-09-24T06:25:50.336Z,1.88
2022-09-24T06:28:39.697Z,2.35
2022-09-24T06:31:27.592Z,3.58
2022-09-24T06:34:16.225Z,2.20
2022-09-24T06:37:05.119Z,1.98
2022-09-24T06:39:56.595Z,1.30
2022-09-24T06:42:44.934Z,2.15
2022-09-24T06:45:34.284Z,2.47
2022-09-24T06:48:23.639Z,1.85
2022-09-24T06:51:11.640Z,1.50
2022-09-24T06:54:00.237Z,1.65
2022-09-24T06:56:49.147Z,1.38
2022-09-24T06:59:37.077Z,2.15
2022-09-24T07:02:24.975Z,1.50
2022-09-24T07:05:13.581Z,1.55
2022-09-24T07:08:01.558Z,2.65
2022-09-24T07:10:49.889Z,1.60
2022-09-24T07:13:37.993Z,1.83
2022-09-24T07:16:26.466Z,2.70
2022-09-24T07:19:14.347Z,1.35
2022-09-24T07:22:02.959Z,1.65
2022-09-24T07:24:51.003Z,2.70
2022-09-24T07:27:40.212Z,3.25
2022-09-24T07:30:28.166Z,2.40
2022-09-24T07:33:16.119Z,1.95
2022-09-24T07:36:09.097Z,2.30
2022-09-24T07:38:58.776Z,2.15
2022-09-24T07:41:47.583Z,2.47
2022-09-24T07:44:36.647Z,2.10
2022-09-24T07:47:25.393Z,1.80
2022-09-24T07:50:14.256Z,2.33
2022-09-24T07:53:13.482Z,2.42
2022-09-24T07:56:02.259Z,2.80
2022-09-24T07:58:53.904Z,2.72
2022-09-24T08:01:43.278Z,2.33
2022-09-24T08:04:31.975Z,2.75
2022-09-24T08:07:21.006Z,1.67
2022-09-24T08:10:10.226Z,2.78
2022-09-24T08:13:03.222Z,3.17
2022-09-24T08:16:02.423Z,2.42
2022-09-24T08:18:50.528Z,2.08
2022-09-24T08:21:40.430Z,2.05
2022-09-24T08:24:29.245Z,2.60
2022-09-24T08:27:17.949Z,2.40
2022-09-24T08:30:08.091Z,2.95
2022-09-24T08:32:56.689Z,2.63
2022-09-24T08:35:45.583Z,1.73
2022-09-24T08:38:35.155Z,2.55
2022-09-24T08:41:54.903Z,2.22
2022-09-24T08:48:34.677Z,2.85
2022-09-24T08:55:23.209Z,1.85
2022-09-24T08:58:17.486Z,1.88
2022-09-24T09:01:15.225Z,1.90
2022-09-24T09:04:23.710Z,2.15
2022-09-24T09:07:24.037Z,1.83
2022-09-24T09:10:19.486Z,1.58
2022-09-24T09:13:33.762Z,2.70
2022-09-24T09:16:55.204Z,2.20
2022-09-24T09:19:50.316Z,1.60
2022-09-24T09:23:06.544Z,1.60
2022-09-24T09:25:57.981Z,1.90
2022-09-24T09:29:07.267Z,1.67
2022-09-24T09:32:06.892Z,1.95
2022-09-24T09:35:34.528Z,1.63
2022-09-24T09:38:29.691Z,2.58
2022-09-24T09:41:40.480Z,2.15
2022-09-24T09:44:33.810Z,1.23
2022-09-24T09:47:48.490Z,2.10
2022-09-24T09:51:00.605Z,2.70
2022-09-24T09:54:17.799Z,1.63
2022-09-24T09:57:12.794Z,1.55
2022-09-24T10:00:12.199Z,1.85
2022-09-24T10:03:01.282Z,2.28
2022-09-24T10:05:59.041Z,1.55
2022-09-24T10:08:48.386Z,1.50
2022-09-24T10:11:38.437Z,1.55
2022-09-24T10:14:27.306Z,1.70
2022-09-24T10:17:18.518Z,1.38
2022-09-24T10:20:19.035Z,2.40
2022-09-24T10:23:31.446Z,1.80
2022-09-24T10:26:19.781Z,1.80
2022-09-24T10:29:33.642Z,1.45
2022-09-24T10:32:31.335Z,1.58
2022-09-24T10:35:45.927Z,1.98
2022-09-24T13:58:05.041Z,2.20
2022-09-24T14:00:54.665Z,3.58
2022-09-24T14:03:43.976Z,4.53
2022-09-24T14:06:40.324Z,3.42
2022-09-24T14:09:32.491Z,2.97
2022-09-24T14:12:22.574Z,3.38
2022-09-24T14:15:18.839Z,2.53
2022-09-24T14:18:15.093Z,3.20
2022-09-24T14:21:11.336Z,2.08
2022-09-24T14:24:19.710Z,2.58
2022-09-24T14:27:16.174Z,2.70
2022-09-24T14:30:09.646Z,3.03
2022-09-24T14:33:12.955Z,2.60
2022-09-24T14:36:06.513Z,2.15
2022-09-24T14:39:05.619Z,2.83
2022-09-24T14:41:55.451Z,3.65
2022-09-24T14:44:46.380Z,2.40
2022-09-24T14:47:37.341Z,4.70
2022-09-24T14:50:37.561Z,5.97
2022-09-24T14:53:37.907Z,4.60
2022-09-24T14:56:28.722Z,4.43
2022-09-24T14:59:31.394Z,3.20
2022-09-24T15:02:30.749Z,2.78
2022-09-24T15:05:24.763Z,2.20
2022-09-24T15:08:20.270Z,3.75
2022-09-24T15:11:17.721Z,3.45
2022-09-24T15:14:19.509Z,3.22
2022-09-24T15:17:10.888Z,2.30
2022-09-24T15:19:59.507Z,2.88
2022-09-24T15:22:48.330Z,2.70
2022-09-24T15:25:37.542Z,2.95
2022-09-24T15:28:29.540Z,3.13
2022-09-24T15:31:18.441Z,2.50
2022-09-24T15:34:06.533Z,2.58
2022-09-24T15:37:02.013Z,3.03
2022-09-24T15:39:52.394Z,2.75
2022-09-24T15:42:40.396Z,2.92
2022-09-24T15:45:28.838Z,2.63
2022-09-24T15:48:18.556Z,1.85
2022-09-24T15:51:11.810Z,2.58
2022-09-24T15:54:02.107Z,2.17
2022-09-24T15:56:53.519Z,2.10
2022-09-24T15:59:41.618Z,2.35
2022-09-24T16:02:32.824Z,2.42
2022-09-24T16:05:22.294Z,2.72
2022-09-24T16:08:10.653Z,2.63
2022-09-24T16:10:58.975Z,2.17
2022-09-24T16:13:47.303Z,2.35
2022-09-24T16:16:35.531Z,2.20
2022-09-24T16:19:24.161Z,3.10
2022-09-24T16:22:16.867Z,2.42
2022-09-24T16:25:09.360Z,2.90
2022-09-24T16:28:01.903Z,2.60
2022-09-24T16:30:50.601Z,2.30
2022-09-24T16:33:39.401Z,2.70
2022-09-24T16:36:27.857Z,1.90
2022-09-24T16:39:16.544Z,1.90
2022-09-24T16:42:05.090Z,1.98
2022-09-24T16:44:54.113Z,1.95
2022-09-24T16:47:42.357Z,2.83
2022-09-24T16:50:31.325Z,1.80
2022-09-24T16:53:19.803Z,1.80
2022-09-24T16:56:13.378Z,1.58
2022-09-24T16:59:02.356Z,1.60
2022-09-24T17:01:51.007Z,1.50
2022-09-24T17:04:39.891Z,1.90
2022-09-24T17:07:32.956Z,2.10
2022-09-24T17:10:24.267Z,1.98
2022-09-24T17:13:12.565Z,1.92
2022-09-24T17:16:02.195Z,1.70
2022-09-24T17:18:50.093Z,1.98
2022-09-24T17:21:40.962Z,1.70
2022-09-24T17:24:32.254Z,2.35
2022-09-24T17:27:20.697Z,1.73
2022-09-24T17:30:10.634Z,1.58
2022-09-24T17:32:59.378Z,1.80
2022-09-24T17:35:55.510Z,1.83
2022-09-24T17:38:52.737Z,1.83
2022-09-24T17:41:44.869Z,1.67
2022-09-24T17:44:36.898Z,2.28
2022-09-24T17:47:53.275Z,1.60
2022-09-24T17:50:44.006Z,1.50
2022-09-24T17:53:35.062Z,1.77
2022-09-24T17:56:26.318Z,1.30
2022-09-24T17:59:16.341Z,1.73
2022-09-24T18:02:07.029Z,1.25
2022-09-24T18:04:55.775Z,1.88
2022-09-24T18:07:44.382Z,1.40
2022-09-24T18:10:32.878Z,1.60
2022-09-24T18:13:21.845Z,1.92
2022-09-24T18:19:38.735Z,1.98
2022-09-24T18:22:30.752Z,1.40
2022-09-24T18:25:19.097Z,1.67
2022-09-24T18:28:09.938Z,1.40
2022-09-24T18:31:04.797Z,1.63
2022-09-24T18:33:54.631Z,1.52
2022-09-24T18:36:44.641Z,1.50
2022-09-24T18:39:33.571Z,1.63
2022-09-24T18:42:22.343Z,1.63
2022-09-24T18:45:11.510Z,1.52
2022-09-24T18:47:59.839Z,2.42
2022-09-24T18:50:51.295Z,1.65
2022-09-24T18:53:39.704Z,1.60
2022-09-24T18:56:28.738Z,1.63
2022-09-24T18:59:20.001Z,1.98
2022-09-24T19:02:16.288Z,1.88
2022-09-24T19:05:05.257Z,2.28
2022-09-24T19:07:54.710Z,1.77
2022-09-24T19:10:44.010Z,1.73
2022-09-24T19:13:33.095Z,1.70
2022-09-24T19:16:24.002Z,1.65
2022-09-24T19:19:13.183Z,1.90
2022-09-24T19:22:06.326Z,1.75
2022-09-24T19:24:55.159Z,1.60
2022-09-24T19:27:47.149Z,2.17
2022-09-24T19:30:46.002Z,1.70
2022-09-24T19:33:35.295Z,1.70
2022-09-24T19:36:24.108Z,2.03
2022-09-24T19:39:15.263Z,2.10
2022-09-24T19:42:03.898Z,2.05
2022-09-24T19:44:54.722Z,2.60
2022-09-24T19:47:43.464Z,2.17
2022-09-24T19:50:34.560Z,2.00
2022-09-24T19:53:22.603Z,3.03
2022-09-24T19:56:16.678Z,2.10
2022-09-24T19:59:06.090Z,1.80
2022-09-24T20:01:55.486Z,1.70
2022-09-24T20:04:44.363Z,1.80
2022-09-24T20:07:33.714Z,1.63
2022-09-24T20:10:22.049Z,1.70
2022-09-24T20:13:11.834Z,1.70
2022-09-24T20:16:02.276Z,1.77
2022-09-24T20:18:51.931Z,1.50
2022-09-24T20:21:40.639Z,1.27
2022-09-24T20:24:28.971Z,1.58
2022-09-24T20:27:35.663Z,1.60
2022-09-24T20:30:24.727Z,1.63
2022-09-24T20:33:13.422Z,1.30
2022-09-24T20:36:03.262Z,1.30
2022-09-24T20:38:51.865Z,1.67
2022-09-24T20:41:44.312Z,1.35
2022-09-24T20:44:33.202Z,1.50
2022-09-24T20:47:23.508Z,1.83
2022-09-24T20:50:12.655Z,1.75
2022-09-24T20:53:01.750Z,1.85
2022-09-24T20:55:49.683Z,2.05
2022-09-24T20:58:40.305Z,1.70
2022-09-24T21:01:29.315Z,1.88
2022-09-24T21:04:20.179Z,2.42
2022-09-24T21:07:08.516Z,2.30
2022-09-24T21:09:56.741Z,2.47
2022-09-24T21:12:50.201Z,2.20
2022-09-24T21:15:39.725Z,2.38
2022-09-24T21:18:38.360Z,2.50
2022-09-24T21:21:31.350Z,2.28
2022-09-24T21:24:19.484Z,2.97
2022-09-24T21:27:07.778Z,2.70
2022-09-24T21:29:55.894Z,2.40
2022-09-24T21:32:45.414Z,2.55
2022-09-24T21:35:33.516Z,2.13
2022-09-24T21:38:21.632Z,2.58
2022-09-24T21:41:09.885Z,2.47
2022-09-24T21:43:58.216Z,2.22
2022-09-24T21:46:47.670Z,1.83
2022-09-24T21:49:36.634Z,1.70
2022-09-24T21:52:24.839Z,1.70
2022-09-24T21:55:14.167Z,1.60
2022-09-24T21:58:02.390Z,1.63
2022-09-24T22:00:50.553Z,1.50
2022-09-24T22:03:39.537Z,1.48
2022-09-24T22:06:29.911Z,1.48
2022-09-24T22:09:18.848Z,1.60
2022-09-24T22:12:07.220Z,1.20
2022-09-24T22:14:55.412Z,1.48
2022-09-24T22:17:43.392Z,1.25
2022-09-24T22:20:31.648Z,1.50
2022-09-24T22:23:21.178Z,1.20
2022-09-24T22:26:10.727Z,1.25
2022-09-24T22:28:59.771Z,1.55
2022-09-24T22:31:48.249Z,1.63
2022-09-24T22:34:54.715Z,1.90
2022-09-24T22:37:42.734Z,1.90
2022-09-24T22:40:31.417Z,1.98
2022-09-24T22:43:19.690Z,1.70
2022-09-24T22:46:10.872Z,1.80
2022-09-24T22:48:59.826Z,2.10
2022-09-24T22:51:47.722Z,2.30
2022-09-24T22:54:36.219Z,1.92
2022-09-24T22:57:24.537Z,2.15
2022-09-24T23:00:13.103Z,2.20
2022-09-24T23:03:01.232Z,3.20
2022-09-24T23:05:49.474Z,3.33
2022-09-24T23:08:39.994Z,2.78
2022-09-24T23:11:30.344Z,4.78
2022-09-24T23:14:18.090Z,3.70
2022-09-24T23:17:07.616Z,2.13
2022-09-24T23:19:56.019Z,2.40
2022-09-24T23:22:43.823Z,1.67
2022-09-24T23:25:32.274Z,1.33
2022-09-24T23:28:19.986Z,1.98
2022-09-24T23:31:12.050Z,1.40
2022-09-24T23:34:01.408Z,1.30
2022-09-24T23:36:50.472Z,1.23
2022-09-24T23:39:39.003Z,1.45
2022-09-24T23:42:27.273Z,1.20
2022-09-24T23:45:15.527Z,1.00
2022-09-24T23:48:03.341Z,1.17
2022-09-24T23:50:51.489Z,1.60
2022-09-24T23:53:40.276Z,1.20
2022-09-24T23:56:28.540Z,1.33
2022-09-24T23:59:16.501Z,1.08
